sensor_id;sensor_type;location;lat;lon;timestamp;P1;durP1;ratioP1;P2;durP2;ratioP2
11998;SDS011;40817;51.520;9.954;2023-09-18T00:00:41;8.98;;;4.70;;
11998;SDS011;40817;51.520;9.954;2023-09-18T00:03:09;7.20;;;4.97;;
11998;SDS011;40817;51.520;9.954;2023-09-18T00:05:38;7.30;;;4.97;;
11998;SDS011;40817;51.520;9.954;2023-09-18T00:08:05;7.93;;;4.88;;
11998;SDS011;40817;51.520;9.954;2023-09-18T00:10:32;7.85;;;5.00;;
11998;SDS011;40817;51.520;9.954;2023-09-18T00:13:00;6.45;;;4.32;;
11998;SDS011;40817;51.520;9.954;2023-09-18T00:15:28;7.53;;;4.70;;
11998;SDS011;40817;51.520;9.954;2023-09-18T00:17:56;6.60;;;4.38;;
11998;SDS011;40817;51.520;9.954;2023-09-18T00:20:23;7.57;;;4.75;;
11998;SDS011;40817;51.520;9.954;2023-09-18T00:22:53;5.82;;;4.20;;
11998;SDS011;40817;51.520;9.954;2023-09-18T00:25:21;7.57;;;4.63;;
11998;SDS011;40817;51.520;9.954;2023-09-18T00:27:48;5.32;;;4.82;;
11998;SDS011;40817;51.520;9.954;2023-09-18T00:30:18;6.32;;;4.55;;
11998;SDS011;40817;51.520;9.954;2023-09-18T00:32:45;5.97;;;4.55;;
11998;SDS011;40817;51.520;9.954;2023-09-18T00:35:15;6.85;;;5.03;;
11998;SDS011;40817;51.520;9.954;2023-09-18T00:37:42;9.07;;;4.30;;
11998;SDS011;40817;51.520;9.954;2023-09-18T00:40:11;4.50;;;3.80;;
11998;SDS011;40817;51.520;9.954;2023-09-18T00:42:39;6.70;;;4.22;;
11998;SDS011;40817;51.520;9.954;2023-09-18T00:45:06;7.40;;;4.43;;
11998;SDS011;40817;51.520;9.954;2023-09-18T00:47:35;7.80;;;4.03;;
11998;SDS011;40817;51.520;9.954;2023-09-18T00:50:04;6.85;;;4.40;;
11998;SDS011;40817;51.520;9.954;2023-09-18T00:52:34;6.38;;;4.50;;
11998;SDS011;40817;51.520;9.954;2023-09-18T00:55:02;6.45;;;4.20;;
11998;SDS011;40817;51.520;9.954;2023-09-18T00:57:34;6.20;;;4.15;;
11998;SDS011;40817;51.520;9.954;2023-09-18T01:00:02;8.10;;;4.72;;
11998;SDS011;40817;51.520;9.954;2023-09-18T01:02:31;7.63;;;4.40;;
11998;SDS011;40817;51.520;9.954;2023-09-18T01:04:58;9.45;;;4.35;;
11998;SDS011;40817;51.520;9.954;2023-09-18T01:07:26;9.32;;;4.55;;
11998;SDS011;40817;51.520;9.954;2023-09-18T01:09:54;6.80;;;4.18;;
11998;SDS011;40817;51.520;9.954;2023-09-18T01:12:29;8.48;;;4.82;;
11998;SDS011;40817;51.520;9.954;2023-09-18T01:15:11;6.07;;;4.57;;
11998;SDS011;40817;51.520;9.954;2023-09-18T01:17:48;8.10;;;4.95;;
11998;SDS011;40817;51.520;9.954;2023-09-18T01:20:16;6.45;;;4.85;;
11998;SDS011;40817;51.520;9.954;2023-09-18T01:22:45;7.97;;;5.13;;
11998;SDS011;40817;51.520;9.954;2023-09-18T01:25:14;6.75;;;4.43;;
11998;SDS011;40817;51.520;9.954;2023-09-18T01:27:42;9.77;;;5.30;;
11998;SDS011;40817;51.520;9.954;2023-09-18T01:30:10;6.97;;;4.72;;
11998;SDS011;40817;51.520;9.954;2023-09-18T01:32:40;8.43;;;4.90;;
11998;SDS011;40817;51.520;9.954;2023-09-18T01:35:09;7.55;;;4.90;;
11998;SDS011;40817;51.520;9.954;2023-09-18T01:37:38;9.27;;;5.10;;
11998;SDS011;40817;51.520;9.954;2023-09-18T01:40:08;5.60;;;4.15;;
11998;SDS011;40817;51.520;9.954;2023-09-18T01:42:36;8.52;;;5.20;;
11998;SDS011;40817;51.520;9.954;2023-09-18T01:45:03;8.63;;;4.88;;
11998;SDS011;40817;51.520;9.954;2023-09-18T01:47:33;6.63;;;5.10;;
11998;SDS011;40817;51.520;9.954;2023-09-18T01:50:02;6.47;;;5.13;;
11998;SDS011;40817;51.520;9.954;2023-09-18T01:52:31;6.25;;;4.78;;
11998;SDS011;40817;51.520;9.954;2023-09-18T01:54:59;7.32;;;5.10;;
11998;SDS011;40817;51.520;9.954;2023-09-18T01:57:28;8.40;;;5.18;;
11998;SDS011;40817;51.520;9.954;2023-09-18T01:59:55;7.32;;;4.95;;
11998;SDS011;40817;51.520;9.954;2023-09-18T02:02:22;9.23;;;4.78;;
11998;SDS011;40817;51.520;9.954;2023-09-18T02:04:50;6.65;;;4.65;;
11998;SDS011;40817;51.520;9.954;2023-09-18T02:07:17;8.63;;;4.90;;
11998;SDS011;40817;51.520;9.954;2023-09-18T02:09:45;8.50;;;5.03;;
11998;SDS011;40817;51.520;9.954;2023-09-18T02:12:12;8.02;;;5.28;;
11998;SDS011;40817;51.520;9.954;2023-09-18T02:14:44;11.07;;;5.82;;
11998;SDS011;40817;51.520;9.954;2023-09-18T02:17:12;7.47;;;5.22;;
11998;SDS011;40817;51.520;9.954;2023-09-18T02:19:39;6.88;;;5.18;;
11998;SDS011;40817;51.520;9.954;2023-09-18T02:22:08;7.55;;;5.07;;
11998;SDS011;40817;51.520;9.954;2023-09-18T02:24:35;10.40;;;5.55;;
11998;SDS011;40817;51.520;9.954;2023-09-18T02:27:03;6.40;;;4.80;;
11998;SDS011;40817;51.520;9.954;2023-09-18T02:29:31;12.40;;;5.40;;
11998;SDS011;40817;51.520;9.954;2023-09-18T02:32:00;7.47;;;4.85;;
11998;SDS011;40817;51.520;9.954;2023-09-18T02:34:27;7.78;;;4.53;;
11998;SDS011;40817;51.520;9.954;2023-09-18T02:36:55;7.75;;;5.10;;
11998;SDS011;40817;51.520;9.954;2023-09-18T02:39:23;7.38;;;5.25;;
11998;SDS011;40817;51.520;9.954;2023-09-18T02:41:50;6.45;;;4.75;;
11998;SDS011;40817;51.520;9.954;2023-09-18T02:44:17;6.80;;;5.15;;
11998;SDS011;40817;51.520;9.954;2023-09-18T02:46:45;8.02;;;5.20;;
11998;SDS011;40817;51.520;9.954;2023-09-18T02:49:14;7.97;;;5.00;;
11998;SDS011;40817;51.520;9.954;2023-09-18T02:51:41;8.23;;;5.07;;
11998;SDS011;40817;51.520;9.954;2023-09-18T02:54:09;7.22;;;4.43;;
11998;SDS011;40817;51.520;9.954;2023-09-18T02:56:36;8.55;;;4.72;;
11998;SDS011;40817;51.520;9.954;2023-09-18T02:59:03;7.05;;;5.05;;
11998;SDS011;40817;51.520;9.954;2023-09-18T03:01:31;7.05;;;4.68;;
11998;SDS011;40817;51.520;9.954;2023-09-18T03:03:58;7.20;;;4.63;;
11998;SDS011;40817;51.520;9.954;2023-09-18T03:06:27;7.22;;;5.63;;
11998;SDS011;40817;51.520;9.954;2023-09-18T03:08:55;8.80;;;5.30;;
11998;SDS011;40817;51.520;9.954;2023-09-18T03:11:22;6.05;;;5.22;;
11998;SDS011;40817;51.520;9.954;2023-09-18T03:13:52;6.93;;;4.45;;
11998;SDS011;40817;51.520;9.954;2023-09-18T03:16:20;6.13;;;5.03;;
11998;SDS011;40817;51.520;9.954;2023-09-18T03:18:47;7.65;;;4.72;;
11998;SDS011;40817;51.520;9.954;2023-09-18T03:21:15;6.70;;;4.88;;
11998;SDS011;40817;51.520;9.954;2023-09-18T03:23:43;8.07;;;5.15;;
11998;SDS011;40817;51.520;9.954;2023-09-18T03:26:11;8.38;;;5.50;;
11998;SDS011;40817;51.520;9.954;2023-09-18T03:28:38;6.93;;;5.10;;
11998;SDS011;40817;51.520;9.954;2023-09-18T03:31:05;6.20;;;4.63;;
11998;SDS011;40817;51.520;9.954;2023-09-18T03:33:32;5.05;;;4.47;;
11998;SDS011;40817;51.520;9.954;2023-09-18T03:36:00;6.45;;;4.75;;
11998;SDS011;40817;51.520;9.954;2023-09-18T03:38:29;7.18;;;4.72;;
11998;SDS011;40817;51.520;9.954;2023-09-18T03:41:00;7.80;;;4.85;;
11998;SDS011;40817;51.520;9.954;2023-09-18T03:43:27;9.70;;;4.88;;
11998;SDS011;40817;51.520;9.954;2023-09-18T03:45:55;6.88;;;4.88;;
11998;SDS011;40817;51.520;9.954;2023-09-18T03:48:29;7.53;;;5.70;;
11998;SDS011;40817;51.520;9.954;2023-09-18T03:51:01;7.95;;;4.65;;
11998;SDS011;40817;51.520;9.954;2023-09-18T03:53:28;8.88;;;4.95;;
11998;SDS011;40817;51.520;9.954;2023-09-18T03:55:56;7.95;;;5.55;;
11998;SDS011;40817;51.520;9.954;2023-09-18T03:58:24;6.75;;;5.10;;
11998;SDS011;40817;51.520;9.954;2023-09-18T04:00:52;5.90;;;4.75;;
11998;SDS011;40817;51.520;9.954;2023-09-18T04:03:19;5.50;;;4.50;;
11998;SDS011;40817;51.520;9.954;2023-09-18T04:05:47;6.35;;;4.95;;
11998;SDS011;40817;51.520;9.954;2023-09-18T04:08:14;5.63;;;4.57;;
11998;SDS011;40817;51.520;9.954;2023-09-18T04:10:41;8.20;;;4.47;;
11998;SDS011;40817;51.520;9.954;2023-09-18T04:13:10;6.10;;;4.40;;
11998;SDS011;40817;51.520;9.954;2023-09-18T04:15:38;6.18;;;4.60;;
11998;SDS011;40817;51.520;9.954;2023-09-18T04:18:06;5.70;;;4.85;;
11998;SDS011;40817;51.520;9.954;2023-09-18T04:20:33;5.22;;;4.60;;
11998;SDS011;40817;51.520;9.954;2023-09-18T04:23:17;7.00;;;4.65;;
11998;SDS011;40817;51.520;9.954;2023-09-18T04:25:48;5.43;;;4.57;;
11998;SDS011;40817;51.520;9.954;2023-09-18T04:28:16;5.20;;;4.53;;
11998;SDS011;40817;51.520;9.954;2023-09-18T04:30:48;7.22;;;4.50;;
11998;SDS011;40817;51.520;9.954;2023-09-18T04:33:16;8.63;;;4.82;;
11998;SDS011;40817;51.520;9.954;2023-09-18T04:35:43;5.25;;;4.72;;
11998;SDS011;40817;51.520;9.954;2023-09-18T04:38:11;6.65;;;4.28;;
11998;SDS011;40817;51.520;9.954;2023-09-18T04:40:39;6.13;;;4.43;;
11998;SDS011;40817;51.520;9.954;2023-09-18T04:43:06;5.72;;;4.88;;
11998;SDS011;40817;51.520;9.954;2023-09-18T04:45:34;10.27;;;5.55;;
11998;SDS011;40817;51.520;9.954;2023-09-18T04:48:03;5.75;;;4.40;;
11998;SDS011;40817;51.520;9.954;2023-09-18T04:50:33;6.88;;;4.53;;
11998;SDS011;40817;51.520;9.954;2023-09-18T04:53:00;6.47;;;4.80;;
11998;SDS011;40817;51.520;9.954;2023-09-18T04:55:29;6.95;;;4.32;;
11998;SDS011;40817;51.520;9.954;2023-09-18T04:57:56;5.57;;;4.32;;
11998;SDS011;40817;51.520;9.954;2023-09-18T05:00:24;7.38;;;4.25;;
11998;SDS011;40817;51.520;9.954;2023-09-18T05:02:51;5.75;;;4.57;;
11998;SDS011;40817;51.520;9.954;2023-09-18T05:05:20;5.10;;;4.18;;
11998;SDS011;40817;51.520;9.954;2023-09-18T05:07:48;6.50;;;4.80;;
11998;SDS011;40817;51.520;9.954;2023-09-18T05:10:15;10.50;;;4.60;;
11998;SDS011;40817;51.520;9.954;2023-09-18T05:12:43;5.70;;;4.78;;
11998;SDS011;40817;51.520;9.954;2023-09-18T05:15:10;6.18;;;4.20;;
11998;SDS011;40817;51.520;9.954;2023-09-18T05:17:39;6.88;;;4.05;;
11998;SDS011;40817;51.520;9.954;2023-09-18T05:20:09;4.93;;;4.28;;
11998;SDS011;40817;51.520;9.954;2023-09-18T05:22:42;7.03;;;3.97;;
11998;SDS011;40817;51.520;9.954;2023-09-18T05:25:10;6.05;;;4.35;;
11998;SDS011;40817;51.520;9.954;2023-09-18T05:27:39;4.82;;;3.85;;
11998;SDS011;40817;51.520;9.954;2023-09-18T05:30:10;5.70;;;4.10;;
11998;SDS011;40817;51.520;9.954;2023-09-18T05:32:41;5.65;;;4.00;;
11998;SDS011;40817;51.520;9.954;2023-09-18T05:35:10;4.90;;;4.07;;
11998;SDS011;40817;51.520;9.954;2023-09-18T05:37:38;5.63;;;4.15;;
11998;SDS011;40817;51.520;9.954;2023-09-18T05:40:08;5.65;;;3.85;;
11998;SDS011;40817;51.520;9.954;2023-09-18T05:42:38;6.70;;;3.60;;
11998;SDS011;40817;51.520;9.954;2023-09-18T05:45:09;4.82;;;4.25;;
11998;SDS011;40817;51.520;9.954;2023-09-18T05:47:37;4.32;;;3.85;;
11998;SDS011;40817;51.520;9.954;2023-09-18T05:50:05;7.22;;;4.40;;
11998;SDS011;40817;51.520;9.954;2023-09-18T05:52:35;7.22;;;3.55;;
11998;SDS011;40817;51.520;9.954;2023-09-18T05:55:02;6.65;;;3.72;;
11998;SDS011;40817;51.520;9.954;2023-09-18T05:57:33;8.35;;;3.97;;
11998;SDS011;40817;51.520;9.954;2023-09-18T06:00:01;8.25;;;4.25;;
11998;SDS011;40817;51.520;9.954;2023-09-18T06:02:30;5.95;;;3.65;;
11998;SDS011;40817;51.520;9.954;2023-09-18T06:04:58;8.55;;;3.90;;
11998;SDS011;40817;51.520;9.954;2023-09-18T06:07:31;5.10;;;4.18;;
11998;SDS011;40817;51.520;9.954;2023-09-18T06:09:58;6.82;;;3.53;;
11998;SDS011;40817;51.520;9.954;2023-09-18T06:12:25;5.32;;;3.88;;
11998;SDS011;40817;51.520;9.954;2023-09-18T06:14:54;6.22;;;4.20;;
11998;SDS011;40817;51.520;9.954;2023-09-18T06:17:21;5.93;;;3.72;;
11998;SDS011;40817;51.520;9.954;2023-09-18T06:19:50;7.35;;;3.55;;
11998;SDS011;40817;51.520;9.954;2023-09-18T06:22:17;9.52;;;4.15;;
11998;SDS011;40817;51.520;9.954;2023-09-18T06:24:44;5.85;;;3.78;;
11998;SDS011;40817;51.520;9.954;2023-09-18T06:27:12;7.35;;;3.95;;
11998;SDS011;40817;51.520;9.954;2023-09-18T06:29:39;6.18;;;3.63;;
11998;SDS011;40817;51.520;9.954;2023-09-18T06:32:09;7.93;;;3.90;;
11998;SDS011;40817;51.520;9.954;2023-09-18T06:34:38;7.18;;;3.60;;
11998;SDS011;40817;51.520;9.954;2023-09-18T06:37:08;4.63;;;3.65;;
11998;SDS011;40817;51.520;9.954;2023-09-18T06:39:37;7.22;;;4.13;;
11998;SDS011;40817;51.520;9.954;2023-09-18T06:42:04;6.70;;;3.95;;
11998;SDS011;40817;51.520;9.954;2023-09-18T06:44:32;6.78;;;3.50;;
11998;SDS011;40817;51.520;9.954;2023-09-18T06:46:59;6.43;;;3.92;;
11998;SDS011;40817;51.520;9.954;2023-09-18T06:49:28;5.53;;;3.55;;
11998;SDS011;40817;51.520;9.954;2023-09-18T06:51:55;8.50;;;4.13;;
11998;SDS011;40817;51.520;9.954;2023-09-18T06:54:23;7.40;;;3.60;;
11998;SDS011;40817;51.520;9.954;2023-09-18T06:56:50;6.05;;;3.72;;
11998;SDS011;40817;51.520;9.954;2023-09-18T06:59:17;8.75;;;4.00;;
11998;SDS011;40817;51.520;9.954;2023-09-18T07:01:45;8.82;;;4.43;;
11998;SDS011;40817;51.520;9.954;2023-09-18T07:04:12;5.38;;;3.60;;
11998;SDS011;40817;51.520;9.954;2023-09-18T07:06:41;8.88;;;3.95;;
11998;SDS011;40817;51.520;9.954;2023-09-18T07:09:08;7.55;;;3.75;;
11998;SDS011;40817;51.520;9.954;2023-09-18T07:11:37;8.75;;;3.42;;
11998;SDS011;40817;51.520;9.954;2023-09-18T07:14:04;6.95;;;3.40;;
11998;SDS011;40817;51.520;9.954;2023-09-18T07:16:33;6.97;;;3.90;;
11998;SDS011;40817;51.520;9.954;2023-09-18T07:19:00;6.55;;;3.38;;
11998;SDS011;40817;51.520;9.954;2023-09-18T07:21:29;6.45;;;4.15;;
11998;SDS011;40817;51.520;9.954;2023-09-18T07:23:58;7.97;;;4.00;;
11998;SDS011;40817;51.520;9.954;2023-09-18T07:26:25;8.90;;;4.53;;
11998;SDS011;40817;51.520;9.954;2023-09-18T07:28:53;6.90;;;3.75;;
11998;SDS011;40817;51.520;9.954;2023-09-18T07:31:20;4.25;;;3.33;;
11998;SDS011;40817;51.520;9.954;2023-09-18T07:33:47;6.70;;;3.60;;
11998;SDS011;40817;51.520;9.954;2023-09-18T07:36:16;9.27;;;3.75;;
11998;SDS011;40817;51.520;9.954;2023-09-18T07:38:45;6.47;;;3.78;;
11998;SDS011;40817;51.520;9.954;2023-09-18T07:41:14;5.50;;;3.67;;
11998;SDS011;40817;51.520;9.954;2023-09-18T07:43:41;6.65;;;3.92;;
11998;SDS011;40817;51.520;9.954;2023-09-18T07:46:08;5.93;;;3.22;;
11998;SDS011;40817;51.520;9.954;2023-09-18T07:48:36;7.28;;;3.88;;
11998;SDS011;40817;51.520;9.954;2023-09-18T07:51:03;5.80;;;3.35;;
11998;SDS011;40817;51.520;9.954;2023-09-18T07:53:30;6.25;;;3.53;;
11998;SDS011;40817;51.520;9.954;2023-09-18T07:55:58;10.57;;;3.42;;
11998;SDS011;40817;51.520;9.954;2023-09-18T07:58:28;7.35;;;3.65;;
11998;SDS011;40817;51.520;9.954;2023-09-18T08:00:55;8.50;;;3.97;;
11998;SDS011;40817;51.520;9.954;2023-09-18T08:03:24;7.32;;;3.40;;
11998;SDS011;40817;51.520;9.954;2023-09-18T08:05:51;6.07;;;3.40;;
11998;SDS011;40817;51.520;9.954;2023-09-18T08:08:20;7.35;;;3.72;;
11998;SDS011;40817;51.520;9.954;2023-09-18T08:10:48;7.38;;;3.33;;
11998;SDS011;40817;51.520;9.954;2023-09-18T08:13:16;6.07;;;3.20;;
11998;SDS011;40817;51.520;9.954;2023-09-18T08:15:46;7.75;;;3.40;;
11998;SDS011;40817;51.520;9.954;2023-09-18T08:18:13;5.22;;;3.30;;
11998;SDS011;40817;51.520;9.954;2023-09-18T08:20:41;9.10;;;3.67;;
11998;SDS011;40817;51.520;9.954;2023-09-18T08:23:09;7.78;;;3.50;;
11998;SDS011;40817;51.520;9.954;2023-09-18T08:25:36;7.15;;;3.05;;
11998;SDS011;40817;51.520;9.954;2023-09-18T08:28:05;10.48;;;3.45;;
11998;SDS011;40817;51.520;9.954;2023-09-18T08:30:32;6.35;;;3.08;;
11998;SDS011;40817;51.520;9.954;2023-09-18T08:33:02;8.55;;;3.35;;
11998;SDS011;40817;51.520;9.954;2023-09-18T08:35:30;7.50;;;3.17;;
11998;SDS011;40817;51.520;9.954;2023-09-18T08:37:58;8.30;;;3.17;;
11998;SDS011;40817;51.520;9.954;2023-09-18T08:40:25;12.82;;;4.00;;
11998;SDS011;40817;51.520;9.954;2023-09-18T08:42:52;8.68;;;3.92;;
11998;SDS011;40817;51.520;9.954;2023-09-18T08:45:27;8.02;;;3.20;;
11998;SDS011;40817;51.520;9.954;2023-09-18T08:48:06;8.57;;;3.47;;
11998;SDS011;40817;51.520;9.954;2023-09-18T08:50:33;11.77;;;3.15;;
11998;SDS011;40817;51.520;9.954;2023-09-18T08:53:02;6.28;;;3.50;;
11998;SDS011;40817;51.520;9.954;2023-09-18T08:55:31;8.00;;;3.53;;
11998;SDS011;40817;51.520;9.954;2023-09-18T08:58:01;6.43;;;3.45;;
11998;SDS011;40817;51.520;9.954;2023-09-18T09:00:29;6.80;;;3.15;;
11998;SDS011;40817;51.520;9.954;2023-09-18T09:02:57;8.15;;;3.30;;
11998;SDS011;40817;51.520;9.954;2023-09-18T09:05:25;8.77;;;3.38;;
11998;SDS011;40817;51.520;9.954;2023-09-18T09:07:53;9.25;;;3.25;;
11998;SDS011;40817;51.520;9.954;2023-09-18T09:10:21;8.70;;;3.42;;
11998;SDS011;40817;51.520;9.954;2023-09-18T09:12:54;8.45;;;3.63;;
11998;SDS011;40817;51.520;9.954;2023-09-18T09:15:24;7.70;;;3.10;;
11998;SDS011;40817;51.520;9.954;2023-09-18T09:18:02;9.02;;;3.13;;
11998;SDS011;40817;51.520;9.954;2023-09-18T09:20:33;8.88;;;3.10;;
11998;SDS011;40817;51.520;9.954;2023-09-18T09:23:02;7.97;;;2.97;;
11998;SDS011;40817;51.520;9.954;2023-09-18T09:25:32;8.77;;;2.83;;
11998;SDS011;40817;51.520;9.954;2023-09-18T09:28:00;5.18;;;2.38;;
11998;SDS011;40817;51.520;9.954;2023-09-18T09:30:31;8.35;;;2.53;;
11998;SDS011;40817;51.520;9.954;2023-09-18T09:33:01;6.97;;;2.10;;
11998;SDS011;40817;51.520;9.954;2023-09-18T09:35:31;8.15;;;1.88;;
11998;SDS011;40817;51.520;9.954;2023-09-18T09:38:07;6.40;;;1.75;;
11998;SDS011;40817;51.520;9.954;2023-09-18T09:40:38;17.50;;;2.33;;
11998;SDS011;40817;51.520;9.954;2023-09-18T09:43:07;8.50;;;2.08;;
11998;SDS011;40817;51.520;9.954;2023-09-18T09:45:38;8.27;;;2.30;;
11998;SDS011;40817;51.520;9.954;2023-09-18T09:48:08;9.60;;;2.35;;
11998;SDS011;40817;51.520;9.954;2023-09-18T09:50:43;7.72;;;2.10;;
11998;SDS011;40817;51.520;9.954;2023-09-18T09:53:13;6.15;;;1.80;;
11998;SDS011;40817;51.520;9.954;2023-09-18T09:55:41;6.93;;;2.03;;
11998;SDS011;40817;51.520;9.954;2023-09-18T09:58:08;7.68;;;2.28;;
11998;SDS011;40817;51.520;9.954;2023-09-18T10:00:40;5.82;;;2.03;;
11998;SDS011;40817;51.520;9.954;2023-09-18T10:03:15;4.88;;;1.83;;
11998;SDS011;40817;51.520;9.954;2023-09-18T10:05:46;11.05;;;1.75;;
11998;SDS011;40817;51.520;9.954;2023-09-18T10:08:19;12.48;;;2.38;;
11998;SDS011;40817;51.520;9.954;2023-09-18T10:10:51;8.75;;;2.25;;
11998;SDS011;40817;51.520;9.954;2023-09-18T10:13:23;5.22;;;1.60;;
11998;SDS011;40817;51.520;9.954;2023-09-18T10:16:04;9.05;;;1.85;;
11998;SDS011;40817;51.520;9.954;2023-09-18T10:18:36;6.13;;;1.55;;
11998;SDS011;40817;51.520;9.954;2023-09-18T10:21:14;5.55;;;1.60;;
11998;SDS011;40817;51.520;9.954;2023-09-18T10:23:59;9.05;;;1.40;;
11998;SDS011;40817;51.520;9.954;2023-09-18T10:26:38;10.40;;;2.30;;
11998;SDS011;40817;51.520;9.954;2023-09-18T10:29:15;6.22;;;1.42;;
11998;SDS011;40817;51.520;9.954;2023-09-18T10:31:43;7.45;;;1.83;;
11998;SDS011;40817;51.520;9.954;2023-09-18T10:34:12;4.22;;;2.08;;
11998;SDS011;40817;51.520;9.954;2023-09-18T10:36:43;5.38;;;1.90;;
11998;SDS011;40817;51.520;9.954;2023-09-18T10:39:14;3.97;;;1.48;;
11998;SDS011;40817;51.520;9.954;2023-09-18T10:41:46;5.85;;;1.73;;
11998;SDS011;40817;51.520;9.954;2023-09-18T10:44:15;5.93;;;2.35;;
11998;SDS011;40817;51.520;9.954;2023-09-18T10:46:43;8.43;;;2.30;;
11998;SDS011;40817;51.520;9.954;2023-09-18T10:49:10;7.13;;;2.40;;
11998;SDS011;40817;51.520;9.954;2023-09-18T10:51:38;8.18;;;2.35;;
11998;SDS011;40817;51.520;9.954;2023-09-18T10:54:10;6.72;;;2.10;;
11998;SDS011;40817;51.520;9.954;2023-09-18T10:56:41;5.30;;;1.95;;
11998;SDS011;40817;51.520;9.954;2023-09-18T10:59:09;7.68;;;1.95;;
11998;SDS011;40817;51.520;9.954;2023-09-18T11:01:36;5.90;;;1.70;;
11998;SDS011;40817;51.520;9.954;2023-09-18T11:04:04;7.93;;;2.10;;
11998;SDS011;40817;51.520;9.954;2023-09-18T11:09:31;7.20;;;2.10;;
11998;SDS011;40817;51.520;9.954;2023-09-18T11:12:08;5.18;;;1.80;;
11998;SDS011;40817;51.520;9.954;2023-09-18T11:14:47;6.20;;;2.10;;
11998;SDS011;40817;51.520;9.954;2023-09-18T11:17:29;7.38;;;2.08;;
11998;SDS011;40817;51.520;9.954;2023-09-18T11:20:06;7.30;;;2.25;;
11998;SDS011;40817;51.520;9.954;2023-09-18T11:22:46;9.02;;;2.40;;
11998;SDS011;40817;51.520;9.954;2023-09-18T11:25:35;6.95;;;2.10;;
11998;SDS011;40817;51.520;9.954;2023-09-18T11:28:05;5.50;;;2.10;;
11998;SDS011;40817;51.520;9.954;2023-09-18T11:30:34;5.53;;;1.70;;
11998;SDS011;40817;51.520;9.954;2023-09-18T11:33:03;5.32;;;1.73;;
11998;SDS011;40817;51.520;9.954;2023-09-18T11:35:34;4.30;;;1.83;;
11998;SDS011;40817;51.520;9.954;2023-09-18T11:38:03;4.35;;;1.80;;
11998;SDS011;40817;51.520;9.954;2023-09-18T11:40:33;7.63;;;1.92;;
11998;SDS011;40817;51.520;9.954;2023-09-18T11:43:20;9.85;;;1.90;;
11998;SDS011;40817;51.520;9.954;2023-09-18T11:45:51;4.72;;;1.67;;
11998;SDS011;40817;51.520;9.954;2023-09-18T11:48:21;6.03;;;2.47;;
11998;SDS011;40817;51.520;9.954;2023-09-18T11:50:52;5.65;;;2.20;;
11998;SDS011;40817;51.520;9.954;2023-09-18T11:53:20;5.57;;;1.80;;
11998;SDS011;40817;51.520;9.954;2023-09-18T11:55:50;8.30;;;2.47;;
11998;SDS011;40817;51.520;9.954;2023-09-18T11:58:18;6.45;;;1.85;;
11998;SDS011;40817;51.520;9.954;2023-09-18T12:00:48;4.47;;;1.45;;
11998;SDS011;40817;51.520;9.954;2023-09-18T12:03:17;9.02;;;2.40;;
11998;SDS011;40817;51.520;9.954;2023-09-18T12:05:54;4.85;;;1.50;;
11998;SDS011;40817;51.520;9.954;2023-09-18T12:08:25;6.25;;;1.88;;
11998;SDS011;40817;51.520;9.954;2023-09-18T12:10:57;8.60;;;1.98;;
11998;SDS011;40817;51.520;9.954;2023-09-18T12:13:25;9.15;;;1.73;;
11998;SDS011;40817;51.520;9.954;2023-09-18T12:15:57;6.47;;;1.75;;
11998;SDS011;40817;51.520;9.954;2023-09-18T12:18:27;4.80;;;2.08;;
11998;SDS011;40817;51.520;9.954;2023-09-18T12:20:54;7.22;;;2.15;;
11998;SDS011;40817;51.520;9.954;2023-09-18T12:23:24;3.25;;;1.35;;
11998;SDS011;40817;51.520;9.954;2023-09-18T12:25:58;4.78;;;1.73;;
11998;SDS011;40817;51.520;9.954;2023-09-18T12:28:28;5.47;;;1.77;;
11998;SDS011;40817;51.520;9.954;2023-09-18T12:30:56;4.75;;;1.50;;
11998;SDS011;40817;51.520;9.954;2023-09-18T12:33:24;7.25;;;2.10;;
11998;SDS011;40817;51.520;9.954;2023-09-18T12:35:52;8.18;;;1.90;;
11998;SDS011;40817;51.520;9.954;2023-09-18T12:38:19;6.57;;;1.33;;
11998;SDS011;40817;51.520;9.954;2023-09-18T12:40:51;7.45;;;1.98;;
11998;SDS011;40817;51.520;9.954;2023-09-18T12:43:21;4.85;;;1.73;;
11998;SDS011;40817;51.520;9.954;2023-09-18T12:45:50;7.70;;;2.08;;
11998;SDS011;40817;51.520;9.954;2023-09-18T12:48:19;5.63;;;1.75;;
11998;SDS011;40817;51.520;9.954;2023-09-18T12:50:51;4.65;;;1.88;;
11998;SDS011;40817;51.520;9.954;2023-09-18T12:53:21;3.53;;;1.38;;
11998;SDS011;40817;51.520;9.954;2023-09-18T12:55:49;5.43;;;2.08;;
11998;SDS011;40817;51.520;9.954;2023-09-18T12:58:18;8.27;;;1.67;;
11998;SDS011;40817;51.520;9.954;2023-09-18T13:00:48;10.63;;;2.42;;
11998;SDS011;40817;51.520;9.954;2023-09-18T13:03:16;7.45;;;1.67;;
11998;SDS011;40817;51.520;9.954;2023-09-18T13:05:43;7.78;;;2.00;;
11998;SDS011;40817;51.520;9.954;2023-09-18T13:08:12;6.07;;;2.38;;
11998;SDS011;40817;51.520;9.954;2023-09-18T13:10:40;6.03;;;1.90;;
11998;SDS011;40817;51.520;9.954;2023-09-18T13:13:15;5.10;;;2.30;;
11998;SDS011;40817;51.520;9.954;2023-09-18T13:15:44;6.97;;;1.85;;
11998;SDS011;40817;51.520;9.954;2023-09-18T13:18:14;10.60;;;1.80;;
11998;SDS011;40817;51.520;9.954;2023-09-18T13:20:44;3.78;;;1.50;;
11998;SDS011;40817;51.520;9.954;2023-09-18T13:23:11;4.47;;;1.60;;
11998;SDS011;40817;51.520;9.954;2023-09-18T13:25:39;5.05;;;1.63;;
11998;SDS011;40817;51.520;9.954;2023-09-18T13:28:10;4.88;;;1.73;;
11998;SDS011;40817;51.520;9.954;2023-09-18T13:30:39;4.03;;;1.65;;
11998;SDS011;40817;51.520;9.954;2023-09-18T13:33:09;3.97;;;1.75;;
11998;SDS011;40817;51.520;9.954;2023-09-18T13:35:40;3.90;;;1.52;;
11998;SDS011;40817;51.520;9.954;2023-09-18T13:38:10;6.68;;;2.00;;
11998;SDS011;40817;51.520;9.954;2023-09-18T13:40:39;3.30;;;1.63;;
11998;SDS011;40817;51.520;9.954;2023-09-18T13:43:08;4.20;;;1.60;;
11998;SDS011;40817;51.520;9.954;2023-09-18T13:45:36;4.63;;;1.85;;
11998;SDS011;40817;51.520;9.954;2023-09-18T13:48:04;6.07;;;1.70;;
11998;SDS011;40817;51.520;9.954;2023-09-18T13:50:33;8.30;;;2.10;;
11998;SDS011;40817;51.520;9.954;2023-09-18T13:53:04;3.58;;;1.92;;
11998;SDS011;40817;51.520;9.954;2023-09-18T13:55:32;6.20;;;2.00;;
11998;SDS011;40817;51.520;9.954;2023-09-18T13:58:00;3.83;;;1.48;;
11998;SDS011;40817;51.520;9.954;2023-09-18T14:00:28;4.10;;;1.40;;
11998;SDS011;40817;51.520;9.954;2023-09-18T14:02:56;6.30;;;1.40;;
11998;SDS011;40817;51.520;9.954;2023-09-18T14:05:23;4.10;;;1.60;;
11998;SDS011;40817;51.520;9.954;2023-09-18T14:07:55;3.00;;;1.35;;
11998;SDS011;40817;51.520;9.954;2023-09-18T14:10:26;4.28;;;1.70;;
11998;SDS011;40817;51.520;9.954;2023-09-18T14:12:54;3.88;;;1.48;;
11998;SDS011;40817;51.520;9.954;2023-09-18T14:15:22;6.07;;;1.58;;
11998;SDS011;40817;51.520;9.954;2023-09-18T14:17:50;5.18;;;1.75;;
11998;SDS011;40817;51.520;9.954;2023-09-18T14:20:17;3.13;;;1.52;;
11998;SDS011;40817;51.520;9.954;2023-09-18T14:22:45;3.40;;;1.90;;
11998;SDS011;40817;51.520;9.954;2023-09-18T14:25:14;4.78;;;1.83;;
11998;SDS011;40817;51.520;9.954;2023-09-18T14:27:43;4.15;;;1.67;;
11998;SDS011;40817;51.520;9.954;2023-09-18T14:30:12;2.72;;;1.50;;
11998;SDS011;40817;51.520;9.954;2023-09-18T14:32:40;5.10;;;1.90;;
11998;SDS011;40817;51.520;9.954;2023-09-18T14:35:08;9.27;;;2.15;;
11998;SDS011;40817;51.520;9.954;2023-09-18T14:37:36;3.78;;;1.83;;
11998;SDS011;40817;51.520;9.954;2023-09-18T14:40:04;4.93;;;1.65;;
11998;SDS011;40817;51.520;9.954;2023-09-18T14:42:36;3.42;;;1.83;;
11998;SDS011;40817;51.520;9.954;2023-09-18T14:45:06;5.43;;;2.05;;
11998;SDS011;40817;51.520;9.954;2023-09-18T14:47:37;3.67;;;1.60;;
11998;SDS011;40817;51.520;9.954;2023-09-18T14:50:05;4.70;;;1.90;;
11998;SDS011;40817;51.520;9.954;2023-09-18T14:52:33;3.35;;;1.90;;
11998;SDS011;40817;51.520;9.954;2023-09-18T14:55:01;5.47;;;2.03;;
11998;SDS011;40817;51.520;9.954;2023-09-18T14:57:28;7.18;;;2.22;;
11998;SDS011;40817;51.520;9.954;2023-09-18T14:59:56;5.20;;;2.10;;
11998;SDS011;40817;51.520;9.954;2023-09-18T15:02:24;6.93;;;2.03;;